sensor_id;sensor_type;location;lat;lon;timestamp;pressure;altitude;pressure_sealevel;temperature
48003;BMP280;33768;48.578;11.574;2023-03-01T00:01:32;97096.88;;;1.22
48003;BMP280;33768;48.578;11.574;2023-03-01T00:04:37;97093.88;;;1.20
48003;BMP280;33768;48.578;11.574;2023-03-01T00:07:41;97086.56;;;1.20
48003;BMP280;33768;48.578;11.574;2023-03-01T00:10:45;97085.50;;;1.18
48003;BMP280;33768;48.578;11.574;2023-03-01T00:13:51;97080.88;;;1.18
48003;BMP280;33768;48.578;11.574;2023-03-01T00:16:56;97082.06;;;1.17
48003;BMP280;33768;48.578;11.574;2023-03-01T00:20:00;97085.19;;;1.16
48003;BMP280;33768;48.578;11.574;2023-03-01T00:23:04;97076.38;;;1.15
48003;BMP280;33768;48.578;11.574;2023-03-01T00:26:12;97076.38;;;1.15
48003;BMP280;33768;48.578;11.574;2023-03-01T00:29:21;97069.84;;;1.16
48003;BMP280;33768;48.578;11.574;2023-03-01T00:32:25;97069.53;;;1.14
48003;BMP280;33768;48.578;11.574;2023-03-01T00:35:32;97076.09;;;1.13
48003;BMP280;33768;48.578;11.574;2023-03-01T00:38:41;97066.69;;;1.09
48003;BMP280;33768;48.578;11.574;2023-03-01T00:41:46;97057.00;;;1.11
48003;BMP280;33768;48.578;11.574;2023-03-01T00:44:52;97049.19;;;1.13
48003;BMP280;33768;48.578;11.574;2023-03-01T00:47:57;97058.47;;;1.12
48003;BMP280;33768;48.578;11.574;2023-03-01T00:51:06;97050.56;;;1.09
48003;BMP280;33768;48.578;11.574;2023-03-01T00:54:10;97053.38;;;1.05
48003;BMP280;33768;48.578;11.574;2023-03-01T00:57:14;97050.25;;;1.07
48003;BMP280;33768;48.578;11.574;2023-03-01T01:00:19;97050.13;;;1.01
48003;BMP280;33768;48.578;11.574;2023-03-01T01:03:25;97050.56;;;1.00
48003;BMP280;33768;48.578;11.574;2023-03-01T01:06:32;97042.66;;;0.96
48003;BMP280;33768;48.578;11.574;2023-03-01T01:09:36;97044.59;;;0.96
48003;BMP280;33768;48.578;11.574;2023-03-01T01:12:40;97041.28;;;0.92
48003;BMP280;33768;48.578;11.574;2023-03-01T01:15:45;97038.16;;;0.93
48003;BMP280;33768;48.578;11.574;2023-03-01T01:18:50;97041.28;;;0.92
48003;BMP280;33768;48.578;11.574;2023-03-01T01:21:55;97029.50;;;0.90
48003;BMP280;33768;48.578;11.574;2023-03-01T01:25:00;97026.06;;;0.89
48003;BMP280;33768;48.578;11.574;2023-03-01T01:28:04;97025.75;;;0.87
48003;BMP280;33768;48.578;11.574;2023-03-01T01:31:09;97029.19;;;0.88
48003;BMP280;33768;48.578;11.574;2023-03-01T01:34:16;97021.59;;;0.86
48003;BMP280;33768;48.578;11.574;2023-03-01T01:37:21;97009.31;;;0.85
48003;BMP280;33768;48.578;11.574;2023-03-01T01:40:25;97022.03;;;0.85
48003;BMP280;33768;48.578;11.574;2023-03-01T01:43:40;97031.88;;;0.79
48003;BMP280;33768;48.578;11.574;2023-03-01T01:46:54;97016.94;;;0.78
48003;BMP280;33768;48.578;11.574;2023-03-01T01:50:04;97019.34;;;0.76
48003;BMP280;33768;48.578;11.574;2023-03-01T01:53:38;97020.53;;;0.75
48003;BMP280;33768;48.578;11.574;2023-03-01T01:56:52;97034.84;;;0.72
48003;BMP280;33768;48.578;11.574;2023-03-01T02:00:03;97018.88;;;0.68
48003;BMP280;33768;48.578;11.574;2023-03-01T02:03:22;97013.63;;;0.65
48003;BMP280;33768;48.578;11.574;2023-03-01T02:06:43;97024.69;;;0.67
48003;BMP280;33768;48.578;11.574;2023-03-01T02:10:02;97018.28;;;0.64
48003;BMP280;33768;48.578;11.574;2023-03-01T02:13:10;97015.00;;;0.61
48003;BMP280;33768;48.578;11.574;2023-03-01T02:16:15;97006.63;;;0.59
48003;BMP280;33768;48.578;11.574;2023-03-01T02:19:33;97007.97;;;0.54
48003;BMP280;33768;48.578;11.574;2023-03-01T02:22:44;96999.16;;;0.54
48003;BMP280;33768;48.578;11.574;2023-03-01T02:29:03;96984.06;;;0.38
48003;BMP280;33768;48.578;11.574;2023-03-01T02:32:11;96993.31;;;0.29
48003;BMP280;33768;48.578;11.574;2023-03-01T02:35:17;96992.38;;;0.23
48003;BMP280;33768;48.578;11.574;2023-03-01T02:38:23;96987.31;;;0.16
48003;BMP280;33768;48.578;11.574;2023-03-01T02:41:34;96987.28;;;0.07
48003;BMP280;33768;48.578;11.574;2023-03-01T02:44:40;96995.91;;;0.02
48003;BMP280;33768;48.578;11.574;2023-03-01T02:47:44;96993.22;;;-0.07
48003;BMP280;33768;48.578;11.574;2023-03-01T02:51:03;96994.53;;;-0.11
48003;BMP280;33768;48.578;11.574;2023-03-01T02:57:48;96993.16;;;-0.25
48003;BMP280;33768;48.578;11.574;2023-03-01T03:00:56;96984.94;;;-0.30
48003;BMP280;33768;48.578;11.574;2023-03-01T03:04:00;96977.13;;;-0.37
48003;BMP280;33768;48.578;11.574;2023-03-01T03:07:05;96969.22;;;-0.40
48003;BMP280;33768;48.578;11.574;2023-03-01T03:10:15;96966.66;;;-0.44
48003;BMP280;33768;48.578;11.574;2023-03-01T03:13:19;96961.44;;;-0.47
48003;BMP280;33768;48.578;11.574;2023-03-01T03:16:23;96962.78;;;-0.52
48003;BMP280;33768;48.578;11.574;2023-03-01T03:19:28;96969.75;;;-0.54
48003;BMP280;33768;48.578;11.574;2023-03-01T03:22:32;96956.50;;;-0.58
48003;BMP280;33768;48.578;11.574;2023-03-01T03:25:38;96956.91;;;-0.59
48003;BMP280;33768;48.578;11.574;2023-03-01T03:28:42;96963.31;;;-0.65
48003;BMP280;33768;48.578;11.574;2023-03-01T03:31:46;96959.56;;;-0.68
48003;BMP280;33768;48.578;11.574;2023-03-01T03:34:50;96955.84;;;-0.70
48003;BMP280;33768;48.578;11.574;2023-03-01T03:37:55;96961.44;;;-0.77
48003;BMP280;33768;48.578;11.574;2023-03-01T03:41:07;96953.97;;;-0.82
48003;BMP280;33768;48.578;11.574;2023-03-01T03:44:12;96956.97;;;-0.80
48003;BMP280;33768;48.578;11.574;2023-03-01T03:47:16;96949.03;;;-0.84
48003;BMP280;33768;48.578;11.574;2023-03-01T03:50:21;96953.78;;;-0.88
48003;BMP280;33768;48.578;11.574;2023-03-01T03:53:26;96960.22;;;-0.85
48003;BMP280;33768;48.578;11.574;2023-03-01T03:56:31;96957.34;;;-0.91
48003;BMP280;33768;48.578;11.574;2023-03-01T03:59:35;96954.03;;;-0.94
48003;BMP280;33768;48.578;11.574;2023-03-01T04:02:40;96952.34;;;-1.01
48003;BMP280;33768;48.578;11.574;2023-03-01T04:05:45;96941.94;;;-0.99
48003;BMP280;33768;48.578;11.574;2023-03-01T04:08:49;96949.50;;;-1.06
48003;BMP280;33768;48.578;11.574;2023-03-01T04:11:54;96940.84;;;-1.10
48003;BMP280;33768;48.578;11.574;2023-03-01T04:14:59;96936.38;;;-1.13
48003;BMP280;33768;48.578;11.574;2023-03-01T04:18:04;96931.56;;;-1.18
48003;BMP280;33768;48.578;11.574;2023-03-01T04:21:09;96933.94;;;-1.20
48003;BMP280;33768;48.578;11.574;2023-03-01T04:24:15;96933.31;;;-1.24
48003;BMP280;33768;48.578;11.574;2023-03-01T04:27:19;96931.50;;;-1.27
48003;BMP280;33768;48.578;11.574;2023-03-01T04:30:23;96938.78;;;-1.27
48003;BMP280;33768;48.578;11.574;2023-03-01T04:33:29;96930.56;;;-1.33
48003;BMP280;33768;48.578;11.574;2023-03-01T04:36:33;96935.94;;;-1.33
48003;BMP280;33768;48.578;11.574;2023-03-01T04:39:41;96932.63;;;-1.37
48003;BMP280;33768;48.578;11.574;2023-03-01T04:42:49;96934.88;;;-1.35
48003;BMP280;33768;48.578;11.574;2023-03-01T04:45:53;96932.28;;;-1.39
48003;BMP280;33768;48.578;11.574;2023-03-01T04:48:57;96931.13;;;-1.38
48003;BMP280;33768;48.578;11.574;2023-03-01T04:52:01;96933.69;;;-1.34
48003;BMP280;33768;48.578;11.574;2023-03-01T04:55:06;96929.44;;;-1.44
48003;BMP280;33768;48.578;11.574;2023-03-01T04:58:11;96922.41;;;-1.51
48003;BMP280;33768;48.578;11.574;2023-03-01T05:01:17;96932.28;;;-1.60
48003;BMP280;33768;48.578;11.574;2023-03-01T05:04:24;96930.91;;;-1.64
48003;BMP280;33768;48.578;11.574;2023-03-01T05:07:28;96927.63;;;-1.68
48003;BMP280;33768;48.578;11.574;2023-03-01T05:10:34;96928.16;;;-1.73
48003;BMP280;33768;48.578;11.574;2023-03-01T05:13:40;96923.88;;;-1.71
48003;BMP280;33768;48.578;11.574;2023-03-01T05:16:44;96920.66;;;-1.66
48003;BMP280;33768;48.578;11.574;2023-03-01T05:19:47;96911.66;;;-1.72
48003;BMP280;33768;48.578;11.574;2023-03-01T05:22:52;96914.47;;;-1.75
48003;BMP280;33768;48.578;11.574;2023-03-01T05:25:59;96915.84;;;-1.71
48003;BMP280;33768;48.578;11.574;2023-03-01T05:29:03;96909.84;;;-1.75
48003;BMP280;33768;48.578;11.574;2023-03-01T05:32:07;96912.66;;;-1.78
48003;BMP280;33768;48.578;11.574;2023-03-01T05:35:14;96914.16;;;-1.77
48003;BMP280;33768;48.578;11.574;2023-03-01T05:38:19;96912.75;;;-1.82
48003;BMP280;33768;48.578;11.574;2023-03-01T05:41:24;96918.56;;;-1.83
48003;BMP280;33768;48.578;11.574;2023-03-01T05:44:29;96906.47;;;-1.88
48003;BMP280;33768;48.578;11.574;2023-03-01T05:47:33;96923.28;;;-1.87
48003;BMP280;33768;48.578;11.574;2023-03-01T05:50:41;96924.00;;;-1.87
48003;BMP280;33768;48.578;11.574;2023-03-01T05:53:45;96917.31;;;-1.91
48003;BMP280;33768;48.578;11.574;2023-03-01T05:56:49;96928.75;;;-1.90
48003;BMP280;33768;48.578;11.574;2023-03-01T05:59:53;96927.25;;;-1.91
48003;BMP280;33768;48.578;11.574;2023-03-01T06:02:58;96924.59;;;-1.91
48003;BMP280;33768;48.578;11.574;2023-03-01T06:06:02;96932.63;;;-1.91
48003;BMP280;33768;48.578;11.574;2023-03-01T06:09:07;96934.22;;;-1.94
48003;BMP280;33768;48.578;11.574;2023-03-01T06:12:13;96929.50;;;-1.90
48003;BMP280;33768;48.578;11.574;2023-03-01T06:15:17;96932.16;;;-1.90
48003;BMP280;33768;48.578;11.574;2023-03-01T06:18:21;96923.28;;;-1.87
48003;BMP280;33768;48.578;11.574;2023-03-01T06:21:26;96931.63;;;-1.85
48003;BMP280;33768;48.578;11.574;2023-03-01T06:24:30;96935.13;;;-1.76
48003;BMP280;33768;48.578;11.574;2023-03-01T06:27:34;96930.34;;;-1.59
48003;BMP280;33768;48.578;11.574;2023-03-01T06:30:38;96934.78;;;-1.44
48003;BMP280;33768;48.578;11.574;2023-03-01T06:33:43;96933.63;;;-1.22
48003;BMP280;33768;48.578;11.574;2023-03-01T06:36:48;96931.94;;;-1.07
48003;BMP280;33768;48.578;11.574;2023-03-01T06:39:52;96927.81;;;-0.99
48003;BMP280;33768;48.578;11.574;2023-03-01T06:42:57;96924.78;;;-0.50
48003;BMP280;33768;48.578;11.574;2023-03-01T06:46:04;96933.50;;;-0.29
48003;BMP280;33768;48.578;11.574;2023-03-01T06:49:09;96938.66;;;-0.04
48003;BMP280;33768;48.578;11.574;2023-03-01T06:52:13;96932.25;;;0.11
48003;BMP280;33768;48.578;11.574;2023-03-01T06:55:20;96930.19;;;0.15
48003;BMP280;33768;48.578;11.574;2023-03-01T06:58:25;96934.47;;;0.04
48003;BMP280;33768;48.578;11.574;2023-03-01T07:01:31;96935.22;;;0.04
48003;BMP280;33768;48.578;11.574;2023-03-01T07:04:35;96924.91;;;-0.06
48003;BMP280;33768;48.578;11.574;2023-03-01T07:07:42;96927.13;;;-0.13
48003;BMP280;33768;48.578;11.574;2023-03-01T07:10:54;96922.97;;;-0.14
48003;BMP280;33768;48.578;11.574;2023-03-01T07:14:03;96922.69;;;0.01
48003;BMP280;33768;48.578;11.574;2023-03-01T07:17:07;96916.31;;;0.17
48003;BMP280;33768;48.578;11.574;2023-03-01T07:20:12;96906.78;;;0.51
48003;BMP280;33768;48.578;11.574;2023-03-01T07:23:16;96910.97;;;0.61
48003;BMP280;33768;48.578;11.574;2023-03-01T07:26:20;96899.75;;;0.45
48003;BMP280;33768;48.578;11.574;2023-03-01T07:29:25;96903.50;;;0.38
48003;BMP280;33768;48.578;11.574;2023-03-01T07:32:29;96903.66;;;0.44
48003;BMP280;33768;48.578;11.574;2023-03-01T07:35:33;96908.56;;;0.54
48003;BMP280;33768;48.578;11.574;2023-03-01T07:38:54;96902.00;;;0.55
48003;BMP280;33768;48.578;11.574;2023-03-01T07:42:00;96897.38;;;0.64
48003;BMP280;33768;48.578;11.574;2023-03-01T07:45:05;96899.28;;;0.73
48003;BMP280;33768;48.578;11.574;2023-03-01T07:48:10;96908.09;;;0.91
48003;BMP280;33768;48.578;11.574;2023-03-01T07:51:14;96894.06;;;0.96
48003;BMP280;33768;48.578;11.574;2023-03-01T07:54:18;96902.16;;;1.28
48003;BMP280;33768;48.578;11.574;2023-03-01T07:57:23;96894.22;;;1.33
48003;BMP280;33768;48.578;11.574;2023-03-01T08:00:29;96899.31;;;1.31
48003;BMP280;33768;48.578;11.574;2023-03-01T08:03:35;96897.56;;;1.60
48003;BMP280;33768;48.578;11.574;2023-03-01T08:06:39;96887.00;;;1.80
48003;BMP280;33768;48.578;11.574;2023-03-01T08:09:44;96885.63;;;1.85
48003;BMP280;33768;48.578;11.574;2023-03-01T08:12:51;96886.03;;;1.92
48003;BMP280;33768;48.578;11.574;2023-03-01T08:16:01;96888.03;;;2.06
48003;BMP280;33768;48.578;11.574;2023-03-01T08:19:07;96881.50;;;2.21
48003;BMP280;33768;48.578;11.574;2023-03-01T08:22:13;96885.28;;;2.38
48003;BMP280;33768;48.578;11.574;2023-03-01T08:25:19;96875.97;;;2.39
48003;BMP280;33768;48.578;11.574;2023-03-01T08:28:23;96883.94;;;2.33
48003;BMP280;33768;48.578;11.574;2023-03-01T08:31:31;96870.81;;;2.49
48003;BMP280;33768;48.578;11.574;2023-03-01T08:34:35;96860.97;;;2.61
48003;BMP280;33768;48.578;11.574;2023-03-01T08:37:40;96864.22;;;2.50
48003;BMP280;33768;48.578;11.574;2023-03-01T08:40:44;96864.41;;;2.47
48003;BMP280;33768;48.578;11.574;2023-03-01T08:43:48;96865.91;;;2.62
48003;BMP280;33768;48.578;11.574;2023-03-01T08:46:54;96857.81;;;2.77
48003;BMP280;33768;48.578;11.574;2023-03-01T08:50:02;96844.44;;;3.11
48003;BMP280;33768;48.578;11.574;2023-03-01T08:53:11;96840.31;;;3.43
48003;BMP280;33768;48.578;11.574;2023-03-01T08:56:22;96842.88;;;3.86
48003;BMP280;33768;48.578;11.574;2023-03-01T08:59:27;96841.75;;;4.12
48003;BMP280;33768;48.578;11.574;2023-03-01T09:02:48;96835.88;;;4.14
48003;BMP280;33768;48.578;11.574;2023-03-01T09:06:01;96826.75;;;4.11
48003;BMP280;33768;48.578;11.574;2023-03-01T09:09:16;96838.09;;;4.15
48003;BMP280;33768;48.578;11.574;2023-03-01T09:12:24;96830.03;;;4.40
48003;BMP280;33768;48.578;11.574;2023-03-01T09:15:30;96815.84;;;4.45
48003;BMP280;33768;48.578;11.574;2023-03-01T09:18:38;96824.50;;;4.74
48003;BMP280;33768;48.578;11.574;2023-03-01T09:21:42;96808.91;;;4.89
48003;BMP280;33768;48.578;11.574;2023-03-01T09:24:55;96829.41;;;5.31
48003;BMP280;33768;48.578;11.574;2023-03-01T09:28:02;96831.19;;;5.34
48003;BMP280;33768;48.578;11.574;2023-03-01T09:31:08;96829.78;;;5.44
48003;BMP280;33768;48.578;11.574;2023-03-01T09:34:12;96827.31;;;5.46
48003;BMP280;33768;48.578;11.574;2023-03-01T09:37:20;96827.63;;;5.54
48003;BMP280;33768;48.578;11.574;2023-03-01T09:40:26;96825.69;;;5.95
48003;BMP280;33768;48.578;11.574;2023-03-01T09:43:40;96824.81;;;5.73
48003;BMP280;33768;48.578;11.574;2023-03-01T09:46:45;96818.06;;;5.58
48003;BMP280;33768;48.578;11.574;2023-03-01T09:49:58;96822.31;;;5.34
48003;BMP280;33768;48.578;11.574;2023-03-01T09:53:07;96812.94;;;5.29
48003;BMP280;33768;48.578;11.574;2023-03-01T09:56:27;96809.03;;;5.05
48003;BMP280;33768;48.578;11.574;2023-03-01T10:02:57;96812.66;;;4.97
48003;BMP280;33768;48.578;11.574;2023-03-01T10:06:21;96801.88;;;5.69
48003;BMP280;33768;48.578;11.574;2023-03-01T10:09:29;96793.97;;;6.12
48003;BMP280;33768;48.578;11.574;2023-03-01T10:12:39;96786.53;;;6.02
48003;BMP280;33768;48.578;11.574;2023-03-01T10:15:49;96790.41;;;5.49
48003;BMP280;33768;48.578;11.574;2023-03-01T10:19:00;96789.34;;;5.71
48003;BMP280;33768;48.578;11.574;2023-03-01T10:22:21;96789.38;;;6.40
48003;BMP280;33768;48.578;11.574;2023-03-01T10:26:21;96777.84;;;6.50
48003;BMP280;33768;48.578;11.574;2023-03-01T10:30:19;96781.63;;;7.07
48003;BMP280;33768;48.578;11.574;2023-03-01T10:39:25;96765.31;;;6.80
48003;BMP280;33768;48.578;11.574;2023-03-01T10:42:32;96757.16;;;6.63
48003;BMP280;33768;48.578;11.574;2023-03-01T10:45:39;96751.22;;;6.54
48003;BMP280;33768;48.578;11.574;2023-03-01T10:48:43;96747.31;;;7.15
48003;BMP280;33768;48.578;11.574;2023-03-01T10:51:49;96745.59;;;7.06
48003;BMP280;33768;48.578;11.574;2023-03-01T10:55:00;96741.38;;;6.94
48003;BMP280;33768;48.578;11.574;2023-03-01T10:58:28;96739.66;;;7.08
48003;BMP280;33768;48.578;11.574;2023-03-01T11:02:18;96731.69;;;7.53
48003;BMP280;33768;48.578;11.574;2023-03-01T11:06:29;96732.91;;;7.57
48003;BMP280;33768;48.578;11.574;2023-03-01T11:09:33;96721.78;;;7.61
48003;BMP280;33768;48.578;11.574;2023-03-01T11:12:44;96722.41;;;7.16
48003;BMP280;33768;48.578;11.574;2023-03-01T11:16:22;96715.97;;;6.92
48003;BMP280;33768;48.578;11.574;2023-03-01T11:19:26;96705.13;;;6.97
48003;BMP280;33768;48.578;11.574;2023-03-01T11:22:32;96705.16;;;6.70
48003;BMP280;33768;48.578;11.574;2023-03-01T11:25:39;96696.97;;;6.49
48003;BMP280;33768;48.578;11.574;2023-03-01T11:28:47;96698.44;;;6.50
48003;BMP280;33768;48.578;11.574;2023-03-01T11:31:55;96683.16;;;6.57
48003;BMP280;33768;48.578;11.574;2023-03-01T11:35:25;96675.03;;;6.36
48003;BMP280;33768;48.578;11.574;2023-03-01T11:38:32;96686.09;;;6.32
48003;BMP280;33768;48.578;11.574;2023-03-01T11:41:39;96667.38;;;6.34
48003;BMP280;33768;48.578;11.574;2023-03-01T11:44:47;96676.25;;;6.35
48003;BMP280;33768;48.578;11.574;2023-03-01T11:51:24;96660.75;;;6.46
48003;BMP280;33768;48.578;11.574;2023-03-01T11:58:14;96649.84;;;7.06
48003;BMP280;33768;48.578;11.574;2023-03-01T12:09:38;96621.28;;;7.66
48003;BMP280;33768;48.578;11.574;2023-03-01T12:13:42;96619.31;;;7.61
48003;BMP280;33768;48.578;11.574;2023-03-01T12:28:10;96607.16;;;8.18
48003;BMP280;33768;48.578;11.574;2023-03-01T12:51:26;96580.13;;;8.60
48003;BMP280;33768;48.578;11.574;2023-03-01T12:54:35;96568.50;;;9.07
48003;BMP280;33768;48.578;11.574;2023-03-01T12:57:46;96563.06;;;9.67
48003;BMP280;33768;48.578;11.574;2023-03-01T13:01:08;96562.78;;;9.70
48003;BMP280;33768;48.578;11.574;2023-03-01T13:07:50;96561.50;;;8.70
48003;BMP280;33768;48.578;11.574;2023-03-01T13:11:11;96567.53;;;8.57
48003;BMP280;33768;48.578;11.574;2023-03-01T13:17:40;96564.28;;;8.59
48003;BMP280;33768;48.578;11.574;2023-03-01T13:20:51;96562.84;;;8.81
48003;BMP280;33768;48.578;11.574;2023-03-01T13:23:56;96569.72;;;8.88
48003;BMP280;33768;48.578;11.574;2023-03-01T13:33:46;96575.03;;;8.99
48003;BMP280;33768;48.578;11.574;2023-03-01T13:36:50;96562.69;;;8.98
48003;BMP280;33768;48.578;11.574;2023-03-01T13:39:57;96572.41;;;8.64
48003;BMP280;33768;48.578;11.574;2023-03-01T13:50:03;96556.66;;;9.04
48003;BMP280;33768;48.578;11.574;2023-03-01T13:53:16;96559.00;;;8.95
48003;BMP280;33768;48.578;11.574;2023-03-01T13:56:26;96551.94;;;8.81
48003;BMP280;33768;48.578;11.574;2023-03-01T13:59:31;96550.97;;;8.79
48003;BMP280;33768;48.578;11.574;2023-03-01T14:02:36;96553.63;;;8.90
48003;BMP280;33768;48.578;11.574;2023-03-01T14:05:43;96555.25;;;8.74
48003;BMP280;33768;48.578;11.574;2023-03-01T14:08:49;96554.13;;;8.65
48003;BMP280;33768;48.578;11.574;2023-03-01T14:16:02;96553.75;;;8.50
48003;BMP280;33768;48.578;11.574;2023-03-01T14:19:20;96552.31;;;8.43
48003;BMP280;33768;48.578;11.574;2023-03-01T14:22:32;96549.63;;;8.38
48003;BMP280;33768;48.578;11.574;2023-03-01T14:25:37;96543.78;;;8.58
48003;BMP280;33768;48.578;11.574;2023-03-01T14:28:45;96536.69;;;8.73
48003;BMP280;33768;48.578;11.574;2023-03-01T14:31:49;96536.25;;;8.69
48003;BMP280;33768;48.578;11.574;2023-03-01T14:34:53;96531.56;;;8.41
48003;BMP280;33768;48.578;11.574;2023-03-01T14:37:58;96530.84;;;8.40
48003;BMP280;33768;48.578;11.574;2023-03-01T14:44:23;96529.63;;;8.36
48003;BMP280;33768;48.578;11.574;2023-03-01T14:47:32;96526.50;;;8.26
48003;BMP280;33768;48.578;11.574;2023-03-01T14:50:41;96530.19;;;8.29
48003;BMP280;33768;48.578;11.574;2023-03-01T14:53:46;96517.47;;;8.13
48003;BMP280;33768;48.578;11.574;2023-03-01T14:56:52;96521.69;;;8.09
48003;BMP280;33768;48.578;11.574;2023-03-01T14:59:59;96515.28;;;8.12
48003;BMP280;33768;48.578;11.574;2023-03-01T15:03:13;96505.91;;;8.07
48003;BMP280;33768;48.578;11.574;2023-03-01T15:06:20;96511.63;;;7.98
48003;BMP280;33768;48.578;11.574;2023-03-01T15:09:51;96505.72;;;7.94
48003;BMP280;33768;48.578;11.574;2023-03-01T15:13:41;96497.84;;;7.91
48003;BMP280;33768;48.578;11.574;2023-03-01T15:16:51;96491.19;;;7.92
48003;BMP280;33768;48.578;11.574;2023-03-01T15:21:48;96486.19;;;7.96
48003;BMP280;33768;48.578;11.574;2023-03-01T15:24:56;96484.03;;;7.89
48003;BMP280;33768;48.578;11.574;2023-03-01T15:28:02;96483.84;;;7.81
48003;BMP280;33768;48.578;11.574;2023-03-01T15:31:23;96486.56;;;7.81
48003;BMP280;33768;48.578;11.574;2023-03-01T15:34:33;96488.53;;;7.81
48003;BMP280;33768;48.578;11.574;2023-03-01T15:37:46;96486.63;;;7.71
48003;BMP280;33768;48.578;11.574;2023-03-01T15:40:54;96483.22;;;7.65
48003;BMP280;33768;48.578;11.574;2023-03-01T15:44:00;96500.53;;;7.62
48003;BMP280;33768;48.578;11.574;2023-03-01T15:50:32;96492.25;;;7.44
48003;BMP280;33768;48.578;11.574;2023-03-01T15:53:37;96503.91;;;7.28
48003;BMP280;33768;48.578;11.574;2023-03-01T15:56:41;96502.22;;;7.19
48003;BMP280;33768;48.578;11.574;2023-03-01T15:59:45;96489.44;;;7.15
48003;BMP280;33768;48.578;11.574;2023-03-01T16:02:49;96496.88;;;7.09
48003;BMP280;33768;48.578;11.574;2023-03-01T16:05:53;96487.00;;;7.06
48003;BMP280;33768;48.578;11.574;2023-03-01T16:08:58;96491.94;;;7.02
48003;BMP280;33768;48.578;11.574;2023-03-01T16:12:02;96488.75;;;6.98
48003;BMP280;33768;48.578;11.574;2023-03-01T16:15:28;96492.75;;;6.91
48003;BMP280;33768;48.578;11.574;2023-03-01T16:18:32;96503.63;;;6.86
48003;BMP280;33768;48.578;11.574;2023-03-01T16:21:36;96493.03;;;6.77
48003;BMP280;33768;48.578;11.574;2023-03-01T16:24:41;96489.09;;;6.67
48003;BMP280;33768;48.578;11.574;2023-03-01T16:27:49;96499.25;;;6.61
48003;BMP280;33768;48.578;11.574;2023-03-01T16:30:53;96494.59;;;6.51
48003;BMP280;33768;48.578;11.574;2023-03-01T16:33:59;96495.84;;;6.39
48003;BMP280;33768;48.578;11.574;2023-03-01T16:37:03;96499.56;;;6.31
48003;BMP280;33768;48.578;11.574;2023-03-01T16:40:17;96494.38;;;6.22
48003;BMP280;33768;48.578;11.574;2023-03-01T16:43:22;96491.69;;;6.11
48003;BMP280;33768;48.578;11.574;2023-03-01T16:46:27;96501.03;;;5.99
48003;BMP280;33768;48.578;11.574;2023-03-01T16:49:32;96500.31;;;5.93
48003;BMP280;33768;48.578;11.574;2023-03-01T16:52:37;96494.66;;;5.81
48003;BMP280;33768;48.578;11.574;2023-03-01T16:55:41;96496.84;;;5.71
48003;BMP280;33768;48.578;11.574;2023-03-01T16:58:49;96500.25;;;5.66
48003;BMP280;33768;48.578;11.574;2023-03-01T17:01:53;96510.81;;;5.59
48003;BMP280;33768;48.578;11.574;2023-03-01T17:04:57;96507.38;;;5.53
48003;BMP280;33768;48.578;11.574;2023-03-01T17:08:01;96501.69;;;5.46
48003;BMP280;33768;48.578;11.574;2023-03-01T17:11:09;96509.09;;;5.40
48003;BMP280;33768;48.578;11.574;2023-03-01T17:14:14;96514.44;;;5.29
48003;BMP280;33768;48.578;11.574;2023-03-01T17:17:20;96508.28;;;5.23
48003;BMP280;33768;48.578;11.574;2023-03-01T17:20:24;96510.50;;;5.19
48003;BMP280;33768;48.578;11.574;2023-03-01T17:23:29;96516.84;;;5.11
48003;BMP280;33768;48.578;11.574;2023-03-01T17:26:33;96519.28;;;5.03
48003;BMP280;33768;48.578;11.574;2023-03-01T17:29:39;96528.63;;;4.97
48003;BMP280;33768;48.578;11.574;2023-03-01T17:32:44;96526.63;;;4.87
48003;BMP280;33768;48.578;11.574;2023-03-01T17:35:49;96539.56;;;4.72
48003;BMP280;33768;48.578;11.574;2023-03-01T17:38:53;96539.44;;;4.56
48003;BMP280;33768;48.578;11.574;2023-03-01T17:41:57;96531.03;;;4.43
48003;BMP280;33768;48.578;11.574;2023-03-01T17:45:01;96538.13;;;4.40
48003;BMP280;33768;48.578;11.574;2023-03-01T17:48:06;96544.31;;;4.41
48003;BMP280;33768;48.578;11.574;2023-03-01T17:51:11;96550.09;;;4.29
48003;BMP280;33768;48.578;11.574;2023-03-01T17:54:15;96546.56;;;4.17
48003;BMP280;33768;48.578;11.574;2023-03-01T17:57:19;96547.81;;;4.16
48003;BMP280;33768;48.578;11.574;2023-03-01T18:00:23;96552.38;;;4.05
48003;BMP280;33768;48.578;11.574;2023-03-01T18:03:28;96556.25;;;3.99
48003;BMP280;33768;48.578;11.574;2023-03-01T18:06:32;96557.16;;;3.90
48003;BMP280;33768;48.578;11.574;2023-03-01T18:09:36;96554.44;;;3.90
48003;BMP280;33768;48.578;11.574;2023-03-01T18:12:40;96549.81;;;3.91
48003;BMP280;33768;48.578;11.574;2023-03-01T18:15:44;96562.81;;;3.92
48003;BMP280;33768;48.578;11.574;2023-03-01T18:18:52;96561.50;;;3.82
48003;BMP280;33768;48.578;11.574;2023-03-01T18:21:56;96556.47;;;3.70
48003;BMP280;33768;48.578;11.574;2023-03-01T18:25:01;96558.94;;;3.68
48003;BMP280;33768;48.578;11.574;2023-03-01T18:28:05;96558.66;;;3.66
48003;BMP280;33768;48.578;11.574;2023-03-01T18:31:09;96552.25;;;3.64
48003;BMP280;33768;48.578;11.574;2023-03-01T18:34:14;96556.41;;;3.65
48003;BMP280;33768;48.578;11.574;2023-03-01T18:37:18;96564.19;;;3.57
48003;BMP280;33768;48.578;11.574;2023-03-01T18:40:22;96563.34;;;3.46
48003;BMP280;33768;48.578;11.574;2023-03-01T18:43:26;96553.72;;;3.40
48003;BMP280;33768;48.578;11.574;2023-03-01T18:46:32;96558.25;;;3.28
48003;BMP280;33768;48.578;11.574;2023-03-01T18:49:36;96566.47;;;3.19
48003;BMP280;33768;48.578;11.574;2023-03-01T18:52:40;96567.66;;;3.13
48003;BMP280;33768;48.578;11.574;2023-03-01T18:55:44;96564.81;;;3.02
48003;BMP280;33768;48.578;11.574;2023-03-01T18:58:49;96568.72;;;3.01
48003;BMP280;33768;48.578;11.574;2023-03-01T19:01:53;96568.50;;;3.05
48003;BMP280;33768;48.578;11.574;2023-03-01T19:04:57;96569.94;;;3.00
48003;BMP280;33768;48.578;11.574;2023-03-01T19:08:01;96573.03;;;2.93
48003;BMP280;33768;48.578;11.574;2023-03-01T19:11:05;96582.19;;;2.81
48003;BMP280;33768;48.578;11.574;2023-03-01T19:14:10;96565.47;;;2.78
48003;BMP280;33768;48.578;11.574;2023-03-01T19:17:14;96563.72;;;2.75
48003;BMP280;33768;48.578;11.574;2023-03-01T19:20:18;96567.09;;;2.70
48003;BMP280;33768;48.578;11.574;2023-03-01T19:23:23;96575.72;;;2.74
48003;BMP280;33768;48.578;11.574;2023-03-01T19:26:27;96560.75;;;2.73
48003;BMP280;33768;48.578;11.574;2023-03-01T19:29:31;96556.31;;;2.70
48003;BMP280;33768;48.578;11.574;2023-03-01T19:32:35;96551.38;;;2.68
48003;BMP280;33768;48.578;11.574;2023-03-01T19:35:40;96558.09;;;2.58